»·PEaware :: N1128 KPHX-KTUS

N1128 :: KPHX-KTUS

FLIGHT INFORMATION

Flight Status: Arrived
Operator: Privately registered:
United States
More flights under this callsign
Pilot: Siddique N. (20419)
Aircraft: ECLIPSE 500
(EA50)
More flights by this aircraft type
Origin: KPHX Phoenix Sky Harbor Intl
United States
Destination: KTUS Tucson Intl
United States
More flights between these airports :: More routes between these airports
Route: MOBIE4 GBN DINGO5
File this flight plan on PilotEdge
Remarks:
Altitude:
(Current/Filed)
14,000ft
Speed:
(Current/Filed)
250kts
Departed: 02-Oct-20 11:12 AM
Arrived: 02-Oct-20 11:47 AM
Distance/Time
Traveled:
96nm/0:35
Distance/Time
To Go:
Arrived

Flight Plot

Page will automatically refresh every two minutes.

Flight plan parsing failed; only flown route is shown


Map Options




Map Legend


Flown Route
Filed Route
Departure Airport
Arrival Airport
Navaid (VOR, NDB)
Fix

Horizontal Profiles

Position Reports

Time Latitude Longitude Heading Altitude Ground
Speed
02-Oct-20 10:41 33.443132 -112.025907 233 1112ft 0kts
02-Oct-20 10:42 33.443132 -112.025907 233 1112ft 0kts
02-Oct-20 10:43 33.443132 -112.025907 233 1112ft 0kts
02-Oct-20 10:44 33.443132 -112.025907 233 1112ft 0kts
02-Oct-20 10:45 33.443132 -112.025907 233 1112ft 0kts
02-Oct-20 10:46 33.443132 -112.025907 233 1112ft 0kts
02-Oct-20 10:47 33.443132 -112.025907 233 1112ft 0kts
02-Oct-20 10:48 33.443132 -112.025907 233 1112ft 0kts
02-Oct-20 10:49 33.443132 -112.025907 233 1112ft 0kts
02-Oct-20 10:50 33.443132 -112.025907 233 1112ft 0kts
02-Oct-20 10:51 33.443132 -112.025907 233 1112ft 0kts
02-Oct-20 10:53 33.443132 -112.025907 233 1112ft 0kts
02-Oct-20 10:54 33.443132 -112.025907 233 1112ft 0kts
02-Oct-20 10:55 33.443132 -112.025907 233 1112ft 0kts
02-Oct-20 10:56 33.443132 -112.025907 233 1112ft 0kts
02-Oct-20 10:57 33.443132 -112.025907 233 1112ft 0kts
02-Oct-20 10:58 33.443132 -112.025907 233 1112ft 0kts
02-Oct-20 10:59 33.443132 -112.025907 233 1112ft 0kts
02-Oct-20 11:00 33.443132 -112.025907 233 1112ft 0kts
02-Oct-20 11:01 33.443132 -112.025907 233 1112ft 0kts
02-Oct-20 11:02 33.443132 -112.025907 233 1112ft 0kts
02-Oct-20 11:03 33.443132 -112.025907 233 1112ft 0kts
02-Oct-20 11:04 33.443132 -112.025907 233 1112ft 0kts
02-Oct-20 11:05 33.443132 -112.025907 233 1112ft 0kts
02-Oct-20 11:06 33.443132 -112.025907 233 1112ft 0kts
02-Oct-20 11:06 33.443132 -112.025907 233 1112ft 0kts
02-Oct-20 11:08 33.441811 -112.026862 272 1112ft 8kts
02-Oct-20 11:09 33.441779 -112.028322 209 1109ft 0kts
02-Oct-20 11:10 33.441779 -112.028322 209 1109ft 0kts
02-Oct-20 11:11 33.440870 -112.028426 118 1109ft 0kts
02-Oct-20 11:11 33.440879 -112.024356 90 1112ft 76kts
02-Oct-20 11:12 33.441719 -111.974506 90 1956ft 192kts
02-Oct-20 11:14 33.428451 -111.897847 109 3943ft 211kts
02-Oct-20 11:14 33.412799 -111.842418 109 5600ft 212kts
02-Oct-20 11:15 33.393478 -111.775221 110 7412ft 215kts
02-Oct-20 11:16 33.371935 -111.701401 109 7879ft 256kts
02-Oct-20 11:17 33.350592 -111.627902 109 9593ft 225kts
02-Oct-20 11:18 33.314662 -111.578487 189 11105ft 217kts
02-Oct-20 11:19 33.253780 -111.583340 182 12446ft 222kts
02-Oct-20 11:20 33.191654 -111.585099 184 13685ft 225kts
02-Oct-20 11:21 33.123998 -111.589136 184 13880ft 263kts
02-Oct-20 11:22 33.049049 -111.594041 184 13876ft 265kts
02-Oct-20 11:23 32.978685 -111.598574 184 13877ft 246kts
02-Oct-20 11:24 32.911399 -111.602891 184 13935ft 239kts
02-Oct-20 11:25 32.845051 -111.607204 184 13932ft 238kts
02-Oct-20 11:26 32.778526 -111.612253 185 13821ft 240kts
02-Oct-20 11:27 32.711979 -111.617004 184 13818ft 238kts
02-Oct-20 11:28 32.646022 -111.621604 184 13820ft 238kts
02-Oct-20 11:29 32.578994 -111.626350 185 13867ft 244kts
02-Oct-20 11:30 32.523589 -111.595528 124 13876ft 236kts
02-Oct-20 11:31 32.488883 -111.533599 126 13875ft 218kts
02-Oct-20 11:32 32.453662 -111.474585 126 13872ft 220kts
02-Oct-20 11:33 32.416724 -111.416136 129 13875ft 220kts
02-Oct-20 11:34 32.379407 -111.358132 128 13874ft 220kts
02-Oct-20 11:35 32.338746 -111.304643 149 13381ft 226kts
02-Oct-20 11:36 32.283696 -111.264823 150 11388ft 239kts
02-Oct-20 11:37 32.223377 -111.233170 189 9360ft 244kts
02-Oct-20 11:38 32.158621 -111.243724 179 7161ft 227kts
02-Oct-20 11:39 32.114178 -111.208343 109 6781ft 186kts
02-Oct-20 11:40 32.139673 -111.154432 49 5898ft 176kts
02-Oct-20 11:41 32.169730 -111.109961 49 5900ft 174kts
02-Oct-20 11:42 32.195856 -111.062886 82 5783ft 172kts
02-Oct-20 11:43 32.178807 -111.009643 140 4335ft 168kts
02-Oct-20 11:44 32.146377 -110.974384 141 3070ft 149kts
02-Oct-20 11:45 32.119743 -110.943423 141 2593ft 109kts
02-Oct-20 11:46 32.114637 -110.936754 61 2608ft 0kts
02-Oct-20 11:47 32.117248 -110.937773 358 2601ft 11kts

Navigation Log

Ident Type
Flight plan parsing failed, navigation log unavailable